This is the latest recevied weather packets stored in our database for station/object IZ2MHJ-3. If no packets are shown the sender has not sent any weather packets the latest 10 day(s).
| Time | Temp. | Humidity | Pressure | Rain* | Wind** | Luminosity | Snow |
|---|---|---|---|---|---|---|---|
| 1787908840 | 28.33° C | 71% | 1017 hPa | - | - | - | - |
| 1787907640 | 27.22° C | 75% | 1017.3 hPa | - | - | - | - |
| 1787906440 | 26.11° C | 78% | 1017.8 hPa | - | - | - | - |
| 1787905239 | 25.56° C | 82% | 1018 hPa | - | - | - | - |
| 1787904039 | 26.11° C | 81% | 1017.5 hPa | - | - | - | - |
| 1787902839 | 25° C | 84% | 1017.6 hPa | - | - | - | - |
| 1787901639 | 25° C | 83% | 1018.1 hPa | - | - | - | - |
| 1787900438 | 24.44° C | 86% | 1018.6 hPa | - | - | - | - |
| 1787899238 | 23.89° C | 87% | 1018.5 hPa | - | - | - | - |
| 1787898038 | 23.33° C | 87% | 1019.1 hPa | - | - | - | - |
| 1787896837 | 23.33° C | 87% | 1018.8 hPa | - | - | - | - |
| 1787895637 | 23.33° C | 87% | 1018.5 hPa | - | - | - | - |
| 1787894437 | 23.33° C | 89% | 1018.6 hPa | - | - | - | - |
| 1787893236 | 22.78° C | 91% | 1018.4 hPa | - | - | - | - |
| 1787892036 | 22.22° C | 93% | 1018.5 hPa | - | - | - | - |
| 1787890836 | 22.22° C | 93% | 1019.1 hPa | - | - | - | - |
| 1787889635 | 22.22° C | 91% | 1019.4 hPa | - | - | - | - |
| 1787888435 | 25° C | 73% | 1017.2 hPa | - | - | - | - |
| 1787887235 | 24.44° C | 73% | 1017.7 hPa | - | - | - | - |
| 1787886035 | 24.44° C | 73% | 1018.2 hPa | - | - | - | - |
| 1787884834 | 24.44° C | 75% | 1018.6 hPa | - | - | - | - |
| 1787883634 | 25° C | 73% | 1018.2 hPa | - | - | - | - |
| 1787882434 | 25° C | 73% | 1018.4 hPa | - | - | - | - |
| 1787881233 | 25° C | 73% | 1018.1 hPa | - | - | - | - |
| 1787880033 | 24.44° C | 75% | 1018.4 hPa | - | - | - | - |
* Rain since midnight (hover to see other rain measurements)
** Current wind speed in m/s (hover to see current wind gust speed)